createdAt,value
2023-05-17T00:00:36.527Z,10.27
2023-05-17T00:03:07.197Z,8.60
2023-05-17T00:05:36.214Z,9.63
2023-05-17T00:08:04.794Z,11.95
2023-05-17T00:10:33.996Z,11.00
2023-05-17T00:13:02.731Z,10.63
2023-05-17T00:15:34.044Z,15.05
2023-05-17T00:18:03.188Z,20.48
2023-05-17T00:20:36.206Z,17.27
2023-05-17T00:23:04.528Z,22.05
2023-05-17T00:25:33.819Z,24.80
2023-05-17T00:28:01.891Z,23.77
2023-05-17T00:30:30.023Z,24.40
2023-05-17T00:32:58.780Z,23.20
2023-05-17T00:35:27.284Z,30.60
2023-05-17T00:37:56.569Z,29.98
2023-05-17T00:40:32.346Z,30.27
2023-05-17T00:45:29.478Z,25.42
2023-05-17T00:47:58.298Z,23.83
2023-05-17T00:50:27.303Z,16.92
2023-05-17T00:52:56.262Z,13.57
2023-05-17T00:55:25.530Z,19.17
2023-05-17T00:57:57.311Z,27.02
2023-05-17T01:00:33.382Z,26.83
2023-05-17T01:03:01.695Z,27.48
2023-05-17T01:05:32.322Z,28.48
2023-05-17T01:08:02.198Z,24.38
2023-05-17T01:10:59.833Z,23.08
2023-05-17T01:13:38.627Z,21.58
2023-05-17T01:16:25.983Z,15.63
2023-05-17T01:19:02.834Z,11.18
2023-05-17T01:22:02.642Z,11.38
2023-05-17T01:24:38.079Z,10.32
2023-05-17T01:27:06.135Z,9.90
2023-05-17T01:29:34.314Z,13.23
2023-05-17T01:32:03.434Z,13.93
2023-05-17T01:34:33.301Z,11.43
2023-05-17T01:37:01.500Z,7.78
2023-05-17T01:39:30.116Z,7.13
2023-05-17T01:42:00.529Z,7.50
2023-05-17T01:44:47.145Z,14.43
2023-05-17T01:47:28.848Z,18.48
2023-05-17T01:49:57.600Z,18.30
2023-05-17T01:52:57.207Z,18.10
2023-05-17T01:55:50.488Z,15.90
2023-05-17T01:58:22.637Z,13.98
2023-05-17T02:00:56.027Z,13.18
2023-05-17T02:03:24.710Z,12.65
2023-05-17T02:05:54.231Z,12.43
2023-05-17T02:08:22.394Z,11.27
2023-05-17T02:10:50.379Z,11.75
2023-05-17T02:13:18.604Z,13.13
2023-05-17T02:15:49.749Z,10.27
2023-05-17T02:18:25.041Z,10.40
2023-05-17T02:20:53.310Z,10.18
2023-05-17T02:23:22.342Z,7.82
2023-05-17T02:25:50.519Z,8.05
2023-05-17T02:28:19.414Z,7.05
2023-05-17T02:30:48.606Z,7.28
2023-05-17T02:33:17.423Z,7.53
2023-05-17T02:35:46.340Z,7.97
2023-05-17T02:38:14.748Z,7.68
2023-05-17T02:40:43.421Z,9.30
2023-05-17T02:43:12.651Z,9.55
2023-05-17T02:45:41.932Z,8.82
2023-05-17T02:48:10.613Z,9.85
2023-05-17T02:50:39.918Z,10.10
2023-05-17T02:53:07.808Z,9.90
2023-05-17T02:55:37.499Z,10.35
2023-05-17T02:58:05.910Z,7.55
2023-05-17T03:00:35.795Z,13.68
2023-05-17T03:03:04.603Z,15.48
2023-05-17T03:05:34.489Z,16.30
2023-05-17T03:08:02.644Z,13.98
2023-05-17T03:10:31.112Z,14.35
2023-05-17T03:13:00.087Z,14.15
2023-05-17T03:15:33.421Z,14.90
2023-05-17T03:18:04.646Z,17.40
2023-05-17T03:20:32.829Z,18.58
2023-05-17T03:23:02.354Z,14.30
2023-05-17T03:25:32.390Z,14.68
2023-05-17T03:28:01.482Z,12.63
2023-05-17T03:30:30.131Z,11.73
2023-05-17T03:32:59.856Z,12.35
2023-05-17T03:35:29.985Z,10.75
2023-05-17T03:37:59.435Z,9.35
2023-05-17T03:40:27.484Z,8.75
2023-05-17T03:42:55.805Z,13.25
2023-05-17T03:45:28.754Z,9.95
2023-05-17T03:47:58.130Z,14.10
2023-05-17T03:50:27.826Z,12.65
2023-05-17T03:52:56.644Z,12.77
2023-05-17T03:55:27.911Z,11.60
2023-05-17T03:58:01.629Z,9.77
2023-05-17T04:00:32.746Z,11.02
2023-05-17T04:03:06.401Z,16.45
2023-05-17T04:05:35.505Z,15.70
2023-05-17T04:08:03.803Z,14.55
2023-05-17T04:10:34.465Z,11.95
2023-05-17T04:13:03.700Z,15.00
2023-05-17T04:15:31.944Z,10.98
2023-05-17T04:18:04.774Z,12.65
2023-05-17T04:20:35.095Z,14.18
2023-05-17T04:23:03.630Z,15.48
2023-05-17T04:25:34.487Z,13.05
2023-05-17T04:28:05.029Z,6.65
2023-05-17T04:30:34.461Z,5.47
2023-05-17T04:33:03.104Z,5.90
2023-05-17T04:35:31.425Z,6.63
2023-05-17T04:38:00.210Z,6.95
2023-05-17T04:40:28.617Z,5.50
2023-05-17T04:42:56.708Z,4.00
2023-05-17T04:45:26.620Z,4.80
2023-05-17T04:47:56.554Z,4.10
2023-05-17T04:50:26.110Z,3.53
2023-05-17T04:52:54.114Z,3.42
2023-05-17T04:55:22.721Z,3.42
2023-05-17T04:57:51.141Z,3.13
2023-05-17T05:00:21.218Z,2.03
2023-05-17T05:02:57.329Z,2.35
2023-05-17T05:05:26.587Z,2.10
2023-05-17T05:08:03.015Z,2.90
2023-05-17T05:10:35.035Z,2.50
2023-05-17T05:13:04.705Z,2.80
2023-05-17T05:15:33.447Z,2.17
2023-05-17T05:18:02.014Z,2.30
2023-05-17T05:20:32.056Z,2.33
2023-05-17T05:23:03.893Z,1.88
2023-05-17T05:25:34.864Z,2.15
2023-05-17T05:28:09.506Z,2.13
2023-05-17T05:30:41.185Z,2.55
2023-05-17T05:33:11.543Z,1.63
2023-05-17T05:35:41.287Z,1.83
2023-05-17T05:38:09.736Z,1.80
2023-05-17T05:40:38.662Z,1.60
2023-05-17T05:43:06.560Z,1.90
2023-05-17T05:45:34.932Z,1.77
2023-05-17T05:48:05.938Z,2.33
2023-05-17T05:50:35.357Z,1.20
2023-05-17T05:53:19.009Z,4.03
2023-05-17T05:55:56.880Z,2.88
2023-05-17T05:58:46.074Z,3.22
2023-05-17T06:01:16.215Z,2.30
2023-05-17T06:03:46.868Z,1.70
2023-05-17T06:06:16.974Z,2.47
2023-05-17T06:08:47.405Z,2.78
2023-05-17T06:11:15.647Z,2.53
2023-05-17T06:13:43.635Z,3.15
2023-05-17T06:16:12.677Z,8.82
2023-05-17T06:18:43.181Z,5.95
2023-05-17T06:21:15.512Z,3.33
2023-05-17T06:23:44.051Z,5.45
2023-05-17T06:26:12.650Z,4.75
2023-05-17T06:28:42.891Z,4.60
2023-05-17T06:31:12.652Z,4.57
2023-05-17T06:33:42.231Z,5.00
2023-05-17T06:36:14.490Z,6.95
2023-05-17T06:38:44.042Z,6.78
2023-05-17T06:41:40.171Z,2.97
2023-05-17T06:44:08.688Z,1.88
2023-05-17T06:46:42.335Z,1.92
2023-05-17T06:49:10.669Z,2.85
2023-05-17T06:51:39.335Z,2.45
2023-05-17T06:54:08.613Z,2.45
2023-05-17T06:56:37.776Z,1.90
2023-05-17T06:59:05.819Z,1.88
2023-05-17T07:01:33.958Z,2.10
2023-05-17T07:04:10.705Z,1.42
2023-05-17T07:06:49.259Z,1.60
2023-05-17T07:09:24.728Z,1.30
2023-05-17T07:11:56.030Z,1.77
2023-05-17T07:14:24.886Z,1.40
2023-05-17T07:16:57.429Z,1.40
2023-05-17T07:19:28.772Z,1.50
2023-05-17T07:21:57.504Z,1.50
2023-05-17T07:27:10.642Z,1.20
2023-05-17T07:29:39.114Z,1.40
2023-05-17T07:32:09.875Z,1.65
2023-05-17T07:34:40.258Z,1.50
2023-05-17T07:37:11.306Z,1.90
2023-05-17T07:39:40.408Z,1.52
2023-05-17T07:42:08.404Z,1.52
2023-05-17T07:44:37.731Z,1.40
2023-05-17T07:47:07.380Z,1.65
2023-05-17T07:49:36.624Z,2.20
2023-05-17T07:52:05.483Z,1.50
2023-05-17T07:54:39.264Z,1.30
2023-05-17T07:57:07.922Z,1.20
2023-05-17T07:59:36.231Z,1.17
2023-05-17T08:02:12.788Z,1.38
2023-05-17T08:04:42.292Z,1.40
2023-05-17T08:07:10.547Z,1.35
2023-05-17T08:09:38.698Z,1.48
2023-05-17T08:12:16.478Z,1.20
2023-05-17T08:14:47.993Z,1.40
2023-05-17T08:17:16.297Z,1.40
2023-05-17T08:19:46.529Z,1.60
2023-05-17T08:22:16.389Z,1.60
2023-05-17T08:24:46.954Z,1.40
2023-05-17T08:27:17.480Z,1.42
2023-05-17T08:29:48.503Z,1.60
2023-05-17T08:32:16.995Z,1.60
2023-05-17T08:34:50.186Z,1.67
2023-05-17T08:37:39.352Z,1.80
2023-05-17T08:40:13.732Z,1.75
2023-05-17T08:42:43.383Z,1.98
2023-05-17T08:45:11.803Z,2.10
2023-05-17T08:47:43.224Z,3.30
2023-05-17T08:50:13.017Z,2.60
2023-05-17T08:52:44.491Z,2.35
2023-05-17T08:55:17.029Z,2.58
2023-05-17T08:57:47.401Z,2.40
2023-05-17T09:00:16.914Z,2.10
2023-05-17T09:02:45.016Z,2.45
2023-05-17T09:09:47.719Z,2.30
2023-05-17T09:12:25.840Z,1.95
2023-05-17T09:14:55.888Z,1.38
2023-05-17T09:17:25.508Z,1.38
2023-05-17T09:20:26.367Z,1.60
2023-05-17T09:23:00.201Z,1.40
2023-05-17T09:26:10.692Z,1.80
2023-05-17T09:28:40.163Z,1.63
2023-05-17T09:31:09.083Z,2.00
2023-05-17T09:33:47.159Z,1.50
2023-05-17T09:36:34.075Z,2.03
2023-05-17T09:39:06.404Z,1.70
2023-05-17T09:41:42.015Z,1.67
2023-05-17T09:46:54.531Z,1.85
2023-05-17T09:49:24.047Z,1.63
2023-05-17T09:51:59.898Z,1.63
2023-05-17T09:57:07.967Z,1.33
2023-05-17T09:59:36.350Z,1.40
2023-05-17T10:02:08.435Z,1.40
2023-05-17T10:04:42.361Z,1.35
2023-05-17T10:07:10.872Z,1.30
2023-05-17T10:09:39.102Z,1.30
2023-05-17T10:12:08.823Z,1.40
2023-05-17T10:14:37.241Z,3.13
2023-05-17T10:17:07.589Z,1.40
2023-05-17T10:19:39.283Z,2.00
2023-05-17T10:22:21.624Z,1.67
2023-05-17T10:24:54.230Z,1.02
2023-05-17T10:27:56.935Z,1.50
2023-05-17T10:30:28.781Z,2.35
2023-05-17T10:33:01.520Z,1.63
2023-05-17T10:35:30.067Z,1.80
2023-05-17T10:37:59.273Z,2.03
2023-05-17T10:40:31.550Z,2.97
2023-05-17T10:43:00.220Z,6.60
2023-05-17T10:45:28.515Z,2.45
2023-05-17T10:48:03.977Z,2.65
2023-05-17T10:53:33.701Z,1.92
2023-05-17T10:56:09.713Z,1.50
2023-05-17T10:58:42.668Z,2.22
2023-05-17T11:01:11.988Z,2.00
2023-05-17T11:03:45.465Z,1.75
2023-05-17T11:06:30.797Z,1.70
2023-05-17T11:09:31.217Z,1.30
2023-05-17T11:12:11.990Z,1.88
2023-05-17T11:14:46.097Z,2.17
2023-05-17T11:17:23.987Z,2.30
2023-05-17T11:20:02.105Z,2.50
2023-05-17T11:22:49.325Z,2.38
2023-05-17T11:25:19.459Z,2.03
2023-05-17T11:27:50.823Z,1.70
2023-05-17T11:30:32.679Z,1.80
2023-05-17T11:33:11.006Z,1.65
2023-05-17T11:35:45.886Z,1.55
2023-05-17T11:38:26.027Z,2.00
2023-05-17T11:40:55.837Z,2.33
2023-05-17T11:43:28.793Z,1.83
2023-05-17T11:45:58.833Z,1.83
2023-05-17T11:48:32.786Z,1.65
2023-05-17T11:51:04.732Z,1.80
2023-05-17T11:53:32.915Z,1.80
2023-05-17T11:56:04.222Z,1.98
2023-05-17T11:59:12.039Z,1.63
2023-05-17T12:01:50.164Z,1.50
2023-05-17T12:04:26.653Z,1.65
2023-05-17T12:06:58.206Z,1.60
2023-05-17T12:09:32.518Z,1.30
2023-05-17T12:12:05.616Z,2.05
2023-05-17T12:14:35.137Z,1.98
2023-05-17T12:17:06.506Z,1.38
2023-05-17T12:19:35.254Z,1.65
2023-05-17T12:22:13.133Z,1.73
2023-05-17T12:24:44.590Z,1.95
2023-05-17T12:27:15.551Z,1.92
2023-05-17T12:29:44.148Z,1.60
2023-05-17T12:32:12.357Z,1.58
2023-05-17T12:34:41.972Z,1.63
2023-05-17T12:37:17.314Z,2.22
2023-05-17T12:39:46.630Z,1.88
2023-05-17T12:42:16.418Z,2.35
2023-05-17T12:44:48.096Z,2.00
2023-05-17T12:47:16.790Z,2.00
2023-05-17T12:49:56.991Z,2.10
2023-05-17T12:52:38.567Z,2.03
2023-05-17T12:55:08.199Z,2.42
2023-05-17T12:57:38.169Z,2.03
2023-05-17T13:00:08.573Z,2.30
2023-05-17T13:02:43.639Z,2.00
2023-05-17T13:05:21.536Z,1.92
2023-05-17T13:07:49.849Z,1.95
2023-05-17T13:10:26.682Z,2.38
2023-05-17T13:12:58.957Z,2.38
2023-05-17T13:15:29.401Z,2.35
2023-05-17T13:18:00.630Z,2.35
2023-05-17T13:20:34.131Z,2.03
2023-05-17T13:23:02.373Z,1.98
2023-05-17T13:25:31.819Z,2.40
2023-05-17T13:28:02.943Z,1.90
2023-05-17T13:30:53.331Z,2.35
2023-05-17T13:33:26.910Z,2.70
2023-05-17T13:35:55.287Z,2.13
2023-05-17T13:38:24.178Z,1.77
2023-05-17T13:40:53.252Z,2.08
2023-05-17T13:43:27.882Z,1.88
2023-05-17T13:46:05.094Z,2.58
2023-05-17T13:48:42.791Z,2.40
2023-05-17T13:51:48.120Z,2.03
2023-05-17T13:54:16.439Z,2.05
2023-05-17T13:56:44.783Z,2.72
2023-05-17T13:59:14.439Z,1.65
2023-05-17T14:01:53.022Z,2.13
2023-05-17T14:04:23.678Z,2.30
2023-05-17T14:06:54.868Z,2.08
2023-05-17T14:09:23.528Z,2.10
2023-05-17T14:11:58.777Z,2.15
2023-05-17T14:14:30.417Z,2.20
2023-05-17T14:17:20.285Z,1.88
2023-05-17T14:19:59.049Z,2.70
2023-05-17T14:22:38.912Z,2.38
2023-05-17T14:26:15.728Z,2.00
2023-05-17T14:29:32.615Z,2.00
2023-05-17T14:32:56.902Z,1.90
2023-05-17T14:35:27.487Z,2.08
2023-05-17T14:37:55.496Z,1.90
2023-05-17T14:40:57.920Z,2.13
2023-05-17T14:45:03.518Z,2.35
2023-05-17T14:48:46.117Z,3.05
2023-05-17T14:51:43.414Z,2.13
2023-05-17T14:54:13.488Z,2.10
2023-05-17T14:56:42.695Z,2.50
2023-05-17T14:59:15.403Z,2.55
2023-05-17T15:01:44.268Z,2.58
2023-05-17T15:04:35.750Z,2.80
2023-05-17T15:07:31.607Z,2.50
2023-05-17T15:10:25.796Z,2.28
2023-05-17T15:13:34.863Z,2.00
2023-05-17T15:17:12.559Z,2.70
2023-05-17T15:20:22.685Z,3.58
2023-05-17T15:23:01.247Z,2.88
2023-05-17T15:25:46.987Z,2.33
2023-05-17T15:28:19.011Z,2.63
2023-05-17T15:30:49.583Z,2.13
2023-05-17T15:33:51.476Z,4.82
2023-05-17T15:37:02.207Z,2.75
2023-05-17T15:39:53.187Z,3.22
2023-05-17T15:42:22.442Z,1.98
2023-05-17T15:44:51.037Z,1.88
2023-05-17T15:47:21.937Z,2.55
2023-05-17T15:49:53.326Z,2.10
2023-05-17T15:52:23.505Z,1.65
2023-05-17T15:55:31.031Z,2.08
2023-05-17T15:58:33.784Z,2.15
2023-05-17T16:01:04.689Z,1.95
2023-05-17T16:03:34.712Z,1.55
2023-05-17T16:06:09.254Z,1.88
2023-05-17T16:08:39.600Z,2.42
2023-05-17T16:11:08.857Z,1.80
2023-05-17T16:13:37.329Z,1.83
2023-05-17T16:16:05.976Z,1.75
2023-05-17T16:18:34.713Z,2.00
2023-05-17T16:26:49.817Z,2.47
2023-05-17T16:29:25.532Z,2.33
2023-05-17T16:31:54.582Z,2.38
2023-05-17T16:34:24.893Z,1.70
2023-05-17T16:36:55.645Z,2.83
2023-05-17T16:39:26.003Z,2.58
2023-05-17T16:42:02.075Z,2.30
2023-05-17T16:44:31.409Z,2.50
2023-05-17T16:47:03.996Z,2.22
2023-05-17T16:49:32.639Z,2.17
2023-05-17T16:52:08.173Z,1.70
2023-05-17T16:57:09.837Z,2.05
2023-05-17T16:59:39.512Z,3.22
2023-05-17T17:02:08.664Z,2.90
2023-05-17T17:04:40.777Z,4.85
2023-05-17T17:07:50.032Z,4.32
2023-05-17T17:10:21.947Z,3.17
2023-05-17T17:13:29.206Z,2.30
2023-05-17T17:19:39.946Z,2.60
2023-05-17T17:22:42.877Z,2.55
2023-05-17T17:26:53.776Z,2.75
2023-05-17T17:29:36.085Z,4.00
2023-05-17T17:33:41.865Z,3.03
2023-05-17T17:36:48.203Z,2.95
2023-05-17T17:40:29.088Z,2.78
2023-05-17T17:43:31.477Z,3.13
2023-05-17T17:46:33.328Z,2.72
2023-05-17T17:49:38.417Z,3.17
2023-05-17T17:52:07.341Z,2.65
2023-05-17T17:54:36.686Z,2.58
2023-05-17T17:57:17.589Z,2.70
2023-05-17T17:59:50.582Z,4.07
2023-05-17T18:02:35.607Z,4.10
2023-05-17T18:05:39.430Z,3.45
2023-05-17T18:09:17.031Z,3.38
2023-05-17T18:12:32.212Z,3.60
2023-05-17T18:16:26.724Z,4.53
2023-05-17T18:18:56.787Z,3.85
2023-05-17T18:21:25.379Z,3.85
2023-05-17T18:23:56.644Z,3.67
2023-05-17T18:26:26.585Z,4.00
2023-05-17T18:28:58.564Z,4.35
2023-05-17T18:31:36.098Z,3.65
2023-05-17T18:34:43.316Z,4.28
2023-05-17T18:37:23.523Z,3.78
2023-05-17T18:40:26.613Z,7.10
2023-05-17T18:43:31.526Z,4.00
2023-05-17T18:46:08.649Z,4.25
2023-05-17T18:48:39.070Z,3.63
2023-05-17T18:51:09.777Z,3.65
2023-05-17T18:53:38.817Z,4.07
2023-05-17T18:56:11.228Z,10.25
2023-05-17T18:59:11.234Z,4.82
2023-05-17T19:02:44.015Z,5.15
2023-05-17T19:06:04.267Z,6.40
2023-05-17T19:09:02.966Z,4.63
2023-05-17T19:14:02.754Z,4.28
2023-05-17T19:16:32.137Z,5.05
2023-05-17T19:19:03.804Z,6.35
2023-05-17T19:22:05.656Z,6.13
2023-05-17T19:24:37.977Z,6.88
2023-05-17T19:27:06.321Z,7.97
2023-05-17T19:29:38.831Z,9.68
2023-05-17T19:32:14.110Z,10.10
2023-05-17T19:34:43.669Z,9.67
2023-05-17T19:37:13.674Z,10.98
2023-05-17T19:39:44.062Z,11.57
2023-05-17T19:42:12.723Z,9.00
2023-05-17T19:44:44.834Z,9.70
2023-05-17T19:48:50.048Z,12.88
2023-05-17T19:51:28.784Z,13.05
2023-05-17T19:53:57.396Z,12.18
2023-05-17T19:56:26.139Z,10.35
2023-05-17T19:59:59.096Z,10.30
2023-05-17T20:03:33.137Z,9.85
2023-05-17T20:06:57.756Z,9.50
2023-05-17T20:33:29.862Z,11.07
2023-05-17T20:36:32.434Z,10.48
2023-05-17T20:40:07.153Z,11.73
2023-05-17T20:42:57.407Z,11.73
2023-05-17T20:45:32.151Z,12.43
2023-05-17T20:54:23.808Z,11.82
2023-05-17T20:57:36.369Z,12.35
2023-05-17T21:01:43.764Z,13.73
2023-05-17T21:04:21.416Z,12.82
2023-05-17T21:06:58.378Z,11.52
2023-05-17T21:13:00.785Z,12.05
2023-05-17T21:15:30.990Z,11.57
2023-05-17T21:18:01.390Z,13.15
2023-05-17T21:20:36.986Z,13.05
2023-05-17T21:23:05.550Z,13.20
2023-05-17T21:25:37.896Z,11.98
2023-05-17T21:28:07.840Z,13.30
2023-05-17T21:35:48.346Z,11.05
2023-05-17T21:38:19.981Z,11.80
2023-05-17T21:40:48.737Z,10.55
2023-05-17T21:43:16.998Z,11.00
2023-05-17T21:46:18.646Z,10.32
2023-05-17T21:48:47.826Z,10.57
2023-05-17T21:51:19.352Z,10.38
2023-05-17T21:54:22.886Z,10.02
2023-05-17T21:56:51.057Z,9.93
2023-05-17T21:59:25.274Z,9.63
2023-05-17T22:02:02.191Z,8.93
2023-05-17T22:04:30.924Z,8.77
2023-05-17T22:08:10.577Z,9.32
2023-05-17T22:10:41.173Z,8.52
2023-05-17T22:13:12.633Z,9.80
2023-05-17T22:16:25.849Z,9.55
2023-05-17T22:20:39.228Z,11.35
2023-05-17T22:23:16.330Z,9.00
2023-05-17T22:25:52.846Z,8.77
2023-05-17T22:28:22.924Z,9.70
2023-05-17T22:30:54.667Z,10.68
2023-05-17T22:33:35.876Z,11.30
2023-05-17T22:36:06.344Z,12.63
2023-05-17T22:38:35.292Z,13.07
2023-05-17T22:41:12.322Z,12.27
2023-05-17T22:43:43.382Z,11.13
2023-05-17T22:46:13.090Z,11.63
2023-05-17T22:48:42.143Z,12.38
2023-05-17T22:51:12.933Z,11.75
2023-05-17T22:54:52.385Z,11.98
2023-05-17T23:01:55.337Z,10.98
2023-05-17T23:04:30.521Z,11.35
2023-05-17T23:07:04.609Z,10.82
2023-05-17T23:09:42.407Z,10.93
2023-05-17T23:12:20.154Z,10.68
2023-05-17T23:14:49.302Z,11.98
2023-05-17T23:18:31.454Z,11.40
2023-05-17T23:26:43.600Z,13.00
2023-05-17T23:29:18.290Z,14.35
2023-05-17T23:31:48.362Z,14.30
2023-05-17T23:34:17.080Z,15.70
2023-05-17T23:36:46.051Z,16.17
2023-05-17T23:39:16.260Z,16.83
2023-05-17T23:41:45.631Z,17.20
2023-05-17T23:44:14.179Z,16.98
2023-05-17T23:46:44.574Z,27.30
2023-05-17T23:49:21.343Z,19.40
2023-05-17T23:51:50.096Z,18.90
2023-05-17T23:54:29.026Z,19.80
2023-05-17T23:56:57.956Z,20.33
